Laceyville, Pennsylvania
Current Conditions -  °F | °C
As of 5:54 AM on Tuesday 21 Oct 2014 (Local Time) from KAVP Reporting Station
Overcast Overcast  
Wind Chill: 51°   Ceiling: 6000
Heat Index: 51°   Visibility: 10mi
Dew Point: 46°   Wind: 0mph
Humidity: 83%   Direction: NA
Pressure: 29.85"   Gusts: NA
Location:  41.65°N, 76.16°W
Report Text: KAVP 210954Z AUTO 00000KT 10SM FEW045 OVC060 11/08 A2985 RMK AO2 RAE10B34E43 SLP106 P0000 T01060078
Loading
Personal Weather Stations






























Interactive Weather Map
Tropical Storm Tracking
New forecast layout! Learn more

10-Day Weather Forecast

Advertisements
Track Severe Weather on mobile